Time;durP1;ratioP1;P1;durP2;ratioP2;P2;SDS_P1;SDS_P2;PMS_P1;PMS_P2;Temp;Humidity;BMP_temperature;BMP_pressure;BME280_temperature;BME280_humidity;BME280_pressure;Samples;Min_cycle;Max_cycle;Signal;HPM_P1;HPM_P2
2023/02/17 00:02:21;;;;;;;;;;;;;;;22.08;20.21;98590.16;5057484;28;889;-76
2023/02/17 00:04:47;;;;;;;;;;;;;;;22.44;19.94;98598.00;5057120;28;1979;-76
2023/02/17 00:07:12;;;;;;;;;;;;;;;23.19;19.32;98588.63;5057373;28;1007;-76
2023/02/17 00:09:38;;;;;;;;;;;;;;;23.10;19.09;98582.75;5057312;28;884;-77
2023/02/17 00:12:03;;;;;;;;;;;;;;;22.95;19.48;98581.50;5057299;28;981;-76
2023/02/17 00:14:29;;;;;;;;;;;;;;;22.50;19.84;98588.53;5088471;28;1022;-76
2023/02/17 00:16:54;;;;;;;;;;;;;;;22.55;19.78;98578.72;5056989;28;967;-76
2023/02/17 00:19:22;;;;;;;;;;;;;;;22.73;19.80;98575.47;5056796;28;886;-76
2023/02/17 00:21:49;;;;;;;;;;;;;;;22.25;20.11;98569.19;5056904;28;1305;-77
2023/02/17 00:24:14;;;;;;;;;;;;;;;22.66;19.81;98576.44;5089054;28;1027;-76
2023/02/17 00:26:39;;;;;;;;;;;;;;;22.78;19.78;98564.41;5056995;28;1902;-76
2023/02/17 00:29:05;;;;;;;;;;;;;;;22.84;19.48;98559.00;5056837;28;963;-76
2023/02/17 00:31:30;;;;;;;;;;;;;;;22.83;19.80;98563.09;5056726;28;913;-76
2023/02/17 00:33:57;;;;;;;;;;;;;;;22.38;20.21;98562.84;5072187;28;847;-77
2023/02/17 00:36:25;;;;;;;;;;;;;;;22.52;20.00;98554.84;5056427;28;925;-76
2023/02/17 00:38:50;;;;;;;;;;;;;;;22.75;19.85;98548.28;5056654;28;979;-76
2023/02/17 00:41:16;;;;;;;;;;;;;;;22.38;20.08;98549.47;5056392;28;1007;-77
2023/02/17 00:43:41;;;;;;;;;;;;;;;21.95;20.84;98555.19;5056425;28;944;-76
2023/02/17 00:46:07;;;;;;;;;;;;;;;23.02;19.54;98547.28;5056057;28;1909;-77
2023/02/17 00:48:32;;;;;;;;;;;;;;;22.49;20.24;98535.09;5056281;28;943;-77
2023/02/17 00:50:58;;;;;;;;;;;;;;;22.80;19.46;98533.56;5087939;28;942;-77
2023/02/17 00:53:25;;;;;;;;;;;;;;;22.39;20.05;98536.13;5071583;28;1189;-76
2023/02/17 00:55:50;;;;;;;;;;;;;;;22.20;20.56;98527.19;5055281;28;1205;-76
2023/02/17 00:58:16;;;;;;;;;;;;;;;22.49;20.09;98526.59;5055080;28;1194;-76
2023/02/17 01:00:41;;;;;;;;;;;;;;;22.70;19.74;98523.28;5056862;28;954;-77
2023/02/17 01:03:07;;;;;;;;;;;;;;;23.38;19.06;98516.78;5056138;28;985;-76
2023/02/17 01:05:32;;;;;;;;;;;;;;;22.96;19.42;98521.47;5088404;28;1910;-77
2023/02/17 01:07:58;;;;;;;;;;;;;;;23.08;19.33;98511.44;5071550;28;1323;-76
2023/02/17 01:10:23;;;;;;;;;;;;;;;22.93;19.53;98504.53;5054953;28;1097;-76
2023/02/17 01:12:48;;;;;;;;;;;;;;;23.12;19.24;98509.34;5056063;28;911;-76
2023/02/17 01:15:14;;;;;;;;;;;;;;;22.76;19.63;98498.81;5088571;28;1000;-76
2023/02/17 01:17:41;;;;;;;;;;;;;;;22.52;19.84;98508.69;5071603;28;1202;-76
2023/02/17 01:20:06;;;;;;;;;;;;;;;22.42;20.04;98501.19;5054315;28;1043;-76
2023/02/17 01:22:32;;;;;;;;;;;;;;;22.12;20.48;98497.38;5070678;28;1251;-76
2023/02/17 01:24:57;;;;;;;;;;;;;;;22.05;20.63;98498.28;5070989;28;1977;-76
2023/02/17 01:27:26;;;;;;;;;;;;;;;22.84;19.65;98491.72;5070920;28;1243;-76
2023/02/17 01:29:53;;;;;;;;;;;;;;;22.68;19.83;98494.53;5071105;28;1165;-76
2023/02/17 01:32:18;;;;;;;;;;;;;;;22.91;19.69;98478.66;5055571;28;856;-76
2023/02/17 01:34:47;;;;;;;;;;;;;;;22.43;20.07;98488.63;5055410;28;908;-76
2023/02/17 01:37:14;;;;;;;;;;;;;;;22.73;19.74;98485.50;5054661;28;1370;-76
2023/02/17 01:39:39;;;;;;;;;;;;;;;22.13;20.51;98479.16;5087812;28;897;-76
2023/02/17 01:42:04;;;;;;;;;;;;;;;22.75;19.77;98477.34;5055894;28;946;-76
2023/02/17 01:44:30;;;;;;;;;;;;;;;22.94;19.72;98477.75;5071309;28;1063;-76
2023/02/17 01:46:56;;;;;;;;;;;;;;;22.64;20.06;98476.81;5087705;28;1906;-76
2023/02/17 01:49:37;;;;;;;;;;;;;;;22.74;19.69;98472.94;5054302;28;1218;-76
2023/02/17 01:52:04;;;;;;;;;;;;;;;22.61;19.95;98478.47;5055273;28;922;-76
2023/02/17 01:54:32;;;;;;;;;;;;;;;22.50;20.09;98477.94;5070957;28;1405;-76
2023/02/17 01:56:58;;;;;;;;;;;;;;;22.84;19.77;98473.88;5071961;28;1108;-76
2023/02/17 01:59:23;;;;;;;;;;;;;;;22.33;20.29;98479.94;5075444;28;1136;-76
2023/02/17 02:01:49;;;;;;;;;;;;;;;22.73;19.93;98481.84;5074926;28;1124;-76
2023/02/17 02:04:16;;;;;;;;;;;;;;;22.80;19.79;98479.66;5114182;28;1108;-76
2023/02/17 02:06:41;;;;;;;;;;;;;;;22.86;19.61;98477.09;5063630;28;1985;-76
2023/02/17 02:09:27;;;;;;;;;;;;;;;22.58;20.06;98472.88;5063920;28;1286;-76
2023/02/17 02:11:58;;;;;;;;;;;;;;;23.03;19.49;98464.53;5053659;28;1083;-76
2023/02/17 02:14:29;;;;;;;;;;;;;;;23.07;19.48;98464.44;5012681;28;1115;-77
2023/02/17 02:17:01;;;;;;;;;;;;;;;22.70;19.75;98460.84;5013754;28;976;-76
2023/02/17 02:19:44;;;;;;;;;;;;;;;22.48;20.03;98456.91;4997316;28;1021;-76
2023/02/17 02:22:22;;;;;;;;;;;;;;;22.69;19.91;98456.44;4997348;28;1077;-76
2023/02/17 02:24:58;;;;;;;;;;;;;;;22.28;20.60;98462.66;4997222;28;1911;-76
2023/02/17 02:27:24;;;;;;;;;;;;;;;22.41;20.11;98451.41;5013741;28;1113;-76
2023/02/17 02:29:49;;;;;;;;;;;;;;;22.64;20.06;98448.44;4997344;28;967;-76
2023/02/17 02:32:34;;;;;;;;;;;;;;;22.61;19.99;98443.66;4997251;28;1329;-76
2023/02/17 02:35:18;;;;;;;;;;;;;;;22.40;20.07;98446.97;4989604;28;1097;-77
2023/02/17 02:37:48;;;;;;;;;;;;;;;22.34;20.69;98447.50;4977623;28;942;-76
2023/02/17 02:40:15;;;;;;;;;;;;;;;22.97;19.65;98443.59;4961285;28;1348;-76
2023/02/17 02:42:40;;;;;;;;;;;;;;;22.19;20.60;98440.56;4977505;28;1254;-76
2023/02/17 02:45:07;;;;;;;;;;;;;;;22.70;19.85;98446.69;4990538;28;1899;-76
2023/02/17 02:47:50;;;;;;;;;;;;;;;22.21;20.36;98446.56;5000031;28;1341;-76
2023/02/17 02:50:27;;;;;;;;;;;;;;;22.49;20.24;98444.34;5058324;28;1092;-76
2023/02/17 02:53:09;;;;;;;;;;;;;;;22.65;20.00;98444.38;5052772;28;1112;-76
2023/02/17 02:55:52;;;;;;;;;;;;;;;23.11;19.54;98448.13;5036271;28;1119;-77
2023/02/17 02:58:22;;;;;;;;;;;;;;;22.40;20.22;98455.50;5036135;28;1086;-77
2023/02/17 03:00:48;;;;;;;;;;;;;;;22.13;20.57;98452.84;5036211;28;1387;-76
2023/02/17 03:03:16;;;;;;;;;;;;;;;22.45;20.23;98452.13;5052889;28;1281;-76
2023/02/17 03:05:44;;;;;;;;;;;;;;;22.58;19.89;98451.00;5035848;28;1898;-77
2023/02/17 03:08:11;;;;;;;;;;;;;;;22.88;19.73;98451.94;5052485;28;1194;-76
2023/02/17 03:10:43;;;;;;;;;;;;;;;22.79;19.79;98454.56;5052617;28;1018;-76
2023/02/17 03:13:09;;;;;;;;;;;;;;;22.62;20.11;98454.53;5052743;28;1051;-76
2023/02/17 03:15:36;;;;;;;;;;;;;;;22.20;20.30;98459.16;5036122;28;1129;-76
2023/02/17 03:18:01;;;;;;;;;;;;;;;22.21;20.63;98462.78;5035638;28;1256;-76
2023/02/17 03:20:28;;;;;;;;;;;;;;;22.07;20.80;98455.34;5052498;28;916;-76
2023/02/17 03:22:55;;;;;;;;;;;;;;;21.46;21.53;98461.44;5035522;28;1141;-76
2023/02/17 03:25:22;;;;;;;;;;;;;;;22.15;20.53;98456.84;5035692;28;1972;-76
2023/02/17 03:27:48;;;;;;;;;;;;;;;22.36;20.67;98458.41;5035477;28;1201;-76
2023/02/17 03:30:13;;;;;;;;;;;;;;;22.73;19.91;98457.13;5045663;28;1138;-76
2023/02/17 03:32:39;;;;;;;;;;;;;;;22.68;20.20;98451.97;5073667;28;1104;-76
2023/02/17 03:35:05;;;;;;;;;;;;;;;22.76;19.85;98452.63;5090402;28;972;-77
2023/02/17 03:37:30;;;;;;;;;;;;;;;22.80;19.83;98454.13;5089936;28;856;-77
2023/02/17 03:39:56;;;;;;;;;;;;;;;22.27;20.30;98458.97;5073013;28;1218;-76
2023/02/17 03:42:21;;;;;;;;;;;;;;;22.00;20.88;98449.84;5057620;28;1023;-76
2023/02/17 03:44:46;;;;;;;;;;;;;;;22.46;20.22;98451.69;5057534;28;1906;-76
2023/02/17 03:47:12;;;;;;;;;;;;;;;22.66;20.02;98445.97;5073037;28;1093;-76
2023/02/17 03:49:37;;;;;;;;;;;;;;;22.56;20.03;98455.53;5089845;28;994;-76
2023/02/17 03:52:03;;;;;;;;;;;;;;;21.80;20.86;98453.47;5089579;28;952;-76
2023/02/17 03:54:28;;;;;;;;;;;;;;;23.17;19.36;98449.19;5057128;28;949;-76
2023/02/17 03:56:54;;;;;;;;;;;;;;;22.92;19.55;98446.19;5051599;28;1109;-77
2023/02/17 03:59:19;;;;;;;;;;;;;;;22.70;19.79;98446.69;5035308;28;1049;-76
2023/02/17 04:01:45;;;;;;;;;;;;;;;22.57;19.78;98442.94;5018509;28;1032;-76
2023/02/17 04:04:10;;;;;;;;;;;;;;;22.23;20.56;98437.66;5018387;28;926;-76
2023/02/17 04:06:35;;;;;;;;;;;;;;;21.90;21.00;98433.88;5018309;28;1985;-77
2023/02/17 04:09:01;;;;;;;;;;;;;;;22.34;20.41;98430.50;5018287;28;984;-76
2023/02/17 04:11:26;;;;;;;;;;;;;;;22.69;19.98;98428.06;5034981;28;951;-76
2023/02/17 04:13:52;;;;;;;;;;;;;;;22.57;20.23;98431.59;5034943;28;972;-77
2023/02/17 04:16:17;;;;;;;;;;;;;;;22.60;20.07;98427.88;5035148;28;993;-76
2023/02/17 04:18:42;;;;;;;;;;;;;;;22.65;20.17;98430.19;5018377;28;1009;-76
2023/02/17 04:21:08;;;;;;;;;;;;;;;23.00;19.67;98422.03;5017426;28;1022;-77
2023/02/17 04:23:34;;;;;;;;;;;;;;;22.74;19.75;98419.03;5034528;28;999;-77
2023/02/17 04:26:00;;;;;;;;;;;;;;;22.19;20.56;98417.88;5034559;28;1992;-76
2023/02/17 04:28:25;;;;;;;;;;;;;;;22.05;20.76;98418.94;5050504;28;1110;-76
2023/02/17 04:30:51;;;;;;;;;;;;;;;22.29;20.43;98422.50;5057132;28;937;-76
2023/02/17 04:33:17;;;;;;;;;;;;;;;22.50;20.62;98420.41;5089022;28;871;-77
2023/02/17 04:35:42;;;;;;;;;;;;;;;22.77;20.02;98423.00;5056842;28;967;-77
2023/02/17 04:38:09;;;;;;;;;;;;;;;22.69;20.17;98422.41;5057027;28;1087;-77
2023/02/17 04:40:34;;;;;;;;;;;;;;;22.76;20.08;98427.88;5088414;28;1039;-77
2023/02/17 04:43:00;;;;;;;;;;;;;;;22.02;20.71;98427.53;5037875;28;892;-77
2023/02/17 04:45:25;;;;;;;;;;;;;;;22.62;20.42;98439.56;5056589;28;1981;-77
2023/02/17 04:47:50;;;;;;;;;;;;;;;22.70;20.25;98440.22;5056477;28;967;-77
2023/02/17 04:50:16;;;;;;;;;;;;;;;22.38;20.41;98440.94;5056423;28;876;-77
2023/02/17 04:52:41;;;;;;;;;;;;;;;22.55;20.21;98445.41;5056716;28;928;-77
2023/02/17 04:55:07;;;;;;;;;;;;;;;22.76;19.84;98450.56;5055864;28;988;-77
2023/02/17 04:57:33;;;;;;;;;;;;;;;22.53;20.20;98442.22;5056753;28;1072;-77
2023/02/17 04:59:58;;;;;;;;;;;;;;;22.68;20.21;98449.13;5070123;28;1564;-77
2023/02/17 05:02:25;;;;;;;;;;;;;;;22.44;20.47;98456.22;5074609;28;1476;-77
2023/02/17 05:04:51;;;;;;;;;;;;;;;22.79;19.92;98449.69;5076250;28;1979;-76
2023/02/17 05:07:17;;;;;;;;;;;;;;;22.59;20.33;98451.81;5076223;28;1048;-77
2023/02/17 05:09:42;;;;;;;;;;;;;;;22.66;20.17;98445.16;5075489;28;1331;-77
2023/02/17 05:12:08;;;;;;;;;;;;;;;22.70;20.18;98446.69;5075389;28;1200;-77
2023/02/17 05:14:33;;;;;;;;;;;;;;;22.50;20.23;98454.44;5075745;28;1169;-76
2023/02/17 05:16:58;;;;;;;;;;;;;;;21.68;21.30;98462.63;5075788;28;928;-76
2023/02/17 05:19:24;;;;;;;;;;;;;;;22.15;20.67;98459.66;5076025;28;873;-76
2023/02/17 05:21:50;;;;;;;;;;;;;;;22.08;20.81;98460.59;5076122;28;914;-76
2023/02/17 05:24:16;;;;;;;;;;;;;;;22.32;20.69;98461.31;5075958;28;931;-76
2023/02/17 05:26:41;;;;;;;;;;;;;;;22.64;20.38;98465.47;5075457;28;1905;-77
2023/02/17 05:29:06;;;;;;;;;;;;;;;22.38;20.28;98474.97;5075124;28;1181;-77
2023/02/17 05:31:32;;;;;;;;;;;;;;;22.47;20.26;98478.00;5075897;28;989;-77
2023/02/17 05:33:57;;;;;;;;;;;;;;;22.67;20.00;98487.25;5075908;28;933;-77
2023/02/17 05:36:23;;;;;;;;;;;;;;;22.57;20.01;98482.63;5075805;28;906;-77
2023/02/17 05:38:50;;;;;;;;;;;;;;;22.35;20.67;98477.44;5075760;28;933;-77
2023/02/17 05:41:15;;;;;;;;;;;;;;;22.79;19.75;98482.94;5075471;28;991;-77
2023/02/17 05:43:41;;;;;;;;;;;;;;;22.84;19.82;98483.19;5107117;28;1377;-77
2023/02/17 05:46:06;;;;;;;;;;;;;;;22.75;20.09;98493.59;5075799;28;1902;-77
2023/02/17 05:48:32;;;;;;;;;;;;;;;22.88;20.00;98489.63;5075611;28;1033;-77
2023/02/17 05:50:57;;;;;;;;;;;;;;;22.77;19.92;98491.88;5075861;28;944;-77
2023/02/17 05:53:23;;;;;;;;;;;;;;;22.72;20.11;98489.56;5075854;28;1034;-77
2023/02/17 05:55:48;;;;;;;;;;;;;;;23.19;19.48;98494.16;5075423;28;936;-77
2023/02/17 05:58:14;;;;;;;;;;;;;;;22.39;20.34;98488.72;5075544;28;1007;-77
2023/02/17 06:00:39;;;;;;;;;;;;;;;22.65;20.02;98486.91;5075306;28;918;-77
2023/02/17 06:03:05;;;;;;;;;;;;;;;22.04;20.92;98479.69;5075349;28;951;-76
2023/02/17 06:05:30;;;;;;;;;;;;;;;22.75;19.92;98468.84;5106733;28;1986;-77
2023/02/17 06:07:56;;;;;;;;;;;;;;;22.01;20.63;98480.56;5075784;28;1032;-77
2023/02/17 06:10:21;;;;;;;;;;;;;;;21.46;21.63;98484.09;5075398;28;940;-77
2023/02/17 06:12:47;;;;;;;;;;;;;;;21.74;21.15;98488.41;5075104;28;995;-77
2023/02/17 06:15:12;;;;;;;;;;;;;;;22.26;20.47;98484.94;5075622;28;962;-77
2023/02/17 06:17:38;;;;;;;;;;;;;;;22.54;20.17;98486.38;5075481;28;957;-77
2023/02/17 06:20:03;;;;;;;;;;;;;;;22.59;20.14;98486.63;5074027;28;915;-77
2023/02/17 06:22:29;;;;;;;;;;;;;;;22.55;20.35;98485.13;5106604;28;962;-77
2023/02/17 06:24:54;;;;;;;;;;;;;;;22.30;20.44;98480.81;5075501;28;1910;-77
2023/02/17 06:27:20;;;;;;;;;;;;;;;22.22;20.59;98484.22;5107999;28;892;-77
2023/02/17 06:29:45;;;;;;;;;;;;;;;22.92;19.94;98486.69;5074917;28;953;-77
2023/02/17 06:32:11;;;;;;;;;;;;;;;22.27;20.35;98484.50;5074909;28;1318;-77
2023/02/17 06:34:36;;;;;;;;;;;;;;;22.70;19.99;98483.56;5074929;28;946;-77
2023/02/17 06:37:02;;;;;;;;;;;;;;;23.02;19.60;98479.16;5075286;28;1005;-77
2023/02/17 06:39:27;;;;;;;;;;;;;;;22.99;20.04;98486.50;5075229;28;1030;-77
2023/02/17 06:41:52;;;;;;;;;;;;;;;23.12;19.67;98483.78;5075132;28;900;-77
2023/02/17 06:44:18;;;;;;;;;;;;;;;23.37;19.30;98497.34;5078120;28;863;-77
2023/02/17 06:46:45;;;;;;;;;;;;;;;23.04;19.75;98493.72;5078778;28;1972;-77
2023/02/17 06:49:11;;;;;;;;;;;;;;;22.61;20.14;98492.66;5079159;28;862;-77
2023/02/17 06:51:36;;;;;;;;;;;;;;;22.52;20.12;98494.50;5078579;28;835;-77
2023/02/17 06:54:02;;;;;;;;;;;;;;;22.30;20.54;98492.13;5110290;28;924;-77
2023/02/17 06:56:27;;;;;;;;;;;;;;;22.55;20.34;98496.47;5078733;28;912;-77
2023/02/17 06:58:53;;;;;;;;;;;;;;;22.55;20.28;98502.13;5078520;28;1003;-77
2023/02/17 07:01:19;;;;;;;;;;;;;;;22.70;20.04;98497.75;5078600;28;911;-77
2023/02/17 07:03:45;;;;;;;;;;;;;;;22.28;20.38;98503.13;5078708;28;880;-77
2023/02/17 07:06:10;;;;;;;;;;;;;;;22.30;20.62;98508.34;5078178;28;1894;-77
2023/02/17 07:08:36;;;;;;;;;;;;;;;22.29;20.47;98513.22;5078522;28;1085;-77
2023/02/17 07:11:08;;;;;;;;;;;;;;;22.27;20.50;98498.66;5078619;28;949;-77
2023/02/17 07:13:33;;;;;;;;;;;;;;;22.76;20.11;98507.31;5078310;28;966;-77
2023/02/17 07:15:59;;;;;;;;;;;;;;;22.39;20.38;98510.59;5110397;28;992;-77
2023/02/17 07:18:24;;;;;;;;;;;;;;;22.34;20.82;98514.75;5078231;28;1492;-77
2023/02/17 07:20:50;;;;;;;;;;;;;;;22.86;20.04;98517.63;5077421;28;1193;-77
2023/02/17 07:23:15;;;;;;;;;;;;;;;22.74;19.95;98515.47;5076423;28;961;-77
2023/02/17 07:25:41;;;;;;;;;;;;;;;22.88;19.83;98515.16;5077108;28;1988;-77
2023/02/17 07:28:06;;;;;;;;;;;;;;;22.84;19.89;98520.09;5078213;28;921;-77
2023/02/17 07:30:31;;;;;;;;;;;;;;;22.74;20.04;98521.16;5078173;28;1229;-77
2023/02/17 07:32:57;;;;;;;;;;;;;;;22.32;20.34;98514.38;5076481;28;1031;-77
2023/02/17 07:35:22;;;;;;;;;;;;;;;22.90;19.89;98519.59;5077946;28;1678;-77
2023/02/17 07:37:49;;;;;;;;;;;;;;;22.62;20.16;98514.09;5077855;28;931;-76
2023/02/17 07:40:14;;;;;;;;;;;;;;;22.88;19.94;98517.19;5077900;28;929;-77
2023/02/17 07:42:40;;;;;;;;;;;;;;;22.99;19.54;98508.44;5078096;28;1199;-76
2023/02/17 07:45:06;;;;;;;;;;;;;;;22.32;20.21;98518.00;5077754;28;1902;-77
2023/02/17 07:47:31;;;;;;;;;;;;;;;22.44;20.26;98510.09;5077739;28;939;-77
2023/02/17 07:49:57;;;;;;;;;;;;;;;22.76;19.83;98518.66;5109392;28;990;-77
2023/02/17 07:52:22;;;;;;;;;;;;;;;22.73;20.13;98519.53;5077140;28;1047;-77
2023/02/17 07:54:48;;;;;;;;;;;;;;;22.65;20.26;98523.78;5094126;28;962;-77
2023/02/17 07:57:13;;;;;;;;;;;;;;;22.68;19.96;98517.22;5095401;28;1075;-77
2023/02/17 07:59:38;;;;;;;;;;;;;;;22.45;20.20;98520.19;5095403;28;1022;-77
2023/02/17 08:02:04;;;;;;;;;;;;;;;21.99;20.82;98533.25;5094980;28;952;-77
2023/02/17 08:04:31;;;;;;;;;;;;;;;22.46;20.12;98536.75;5095062;28;1633;-77
2023/02/17 08:06:56;;;;;;;;;;;;;;;22.82;19.71;98533.91;5094826;28;1921;-77
2023/02/17 08:14:52;;;;;;;;;;;;;;;22.02;20.61;98544.53;5074681;28;962;-77
2023/02/17 08:17:19;;;;;;;;;;;;;;;22.67;20.00;98538.31;5077336;28;1521;-77
2023/02/17 08:19:44;;;;;;;;;;;;;;;22.95;19.67;98527.56;5074424;28;904;-77
2023/02/17 08:22:09;;;;;;;;;;;;;;;23.11;19.44;98533.28;5074425;28;978;-77
2023/02/17 08:24:35;;;;;;;;;;;;;;;22.94;19.46;98531.66;5057643;28;1202;-76
2023/02/17 08:27:00;;;;;;;;;;;;;;;23.01;19.53;98528.66;5055140;28;2747;-77
2023/02/17 08:29:26;;;;;;;;;;;;;;;22.55;20.29;98536.16;5056332;28;918;-77
2023/02/17 08:31:51;;;;;;;;;;;;;;;22.92;19.92;98531.31;5056335;28;970;-77
2023/02/17 08:34:17;;;;;;;;;;;;;;;23.00;19.50;98532.72;5056651;28;964;-77
2023/02/17 08:36:42;;;;;;;;;;;;;;;22.84;19.55;98522.91;5056241;28;901;-77
2023/02/17 08:39:13;;;;;;;;;;;;;;;22.82;19.90;98533.91;5056564;28;1248;-77
2023/02/17 08:41:38;;;;;;;;;;;;;;;22.59;20.08;98548.25;5088795;28;951;-78
2023/02/17 08:44:07;;;;;;;;;;;;;;;21.94;20.73;98548.72;5056287;28;930;-78
2023/02/17 08:46:33;;;;;;;;;;;;;;;21.87;21.07;98548.88;5088970;28;1913;-69
2023/02/17 08:48:58;;;;;;;;;;;;;;;22.13;20.81;98535.84;5056061;28;907;-79
2023/02/17 08:51:25;;;;;;;;;;;;;;;22.61;19.77;98540.88;5088567;28;945;-72
2023/02/17 08:53:54;;;;;;;;;;;;;;;22.44;20.32;98535.59;5055461;28;1358;-75
2023/02/17 08:56:20;;;;;;;;;;;;;;;22.35;20.65;98539.03;5063026;28;1116;-78
2023/02/17 08:58:45;;;;;;;;;;;;;;;22.90;19.92;98536.59;5074594;28;928;-76
2023/02/17 09:01:11;;;;;;;;;;;;;;;23.32;19.36;98538.44;5075968;28;970;-77
2023/02/17 09:03:36;;;;;;;;;;;;;;;23.18;19.47;98529.47;5076202;28;1048;-77
2023/02/17 09:06:02;;;;;;;;;;;;;;;23.19;19.39;98531.84;5075845;28;1984;-77
2023/02/17 09:08:27;;;;;;;;;;;;;;;22.69;19.87;98541.53;5074508;28;929;-77
2023/02/17 09:10:53;;;;;;;;;;;;;;;22.31;20.21;98476.72;5075843;28;1138;-76
2023/02/17 09:13:18;;;;;;;;;;;;;;;22.67;20.07;98546.81;5074363;28;1009;-77
2023/02/17 09:15:44;;;;;;;;;;;;;;;22.88;19.74;98537.84;5052938;28;1006;-77
2023/02/17 09:18:09;;;;;;;;;;;;;;;22.79;19.97;98534.78;5053081;28;979;-77
2023/02/17 09:20:35;;;;;;;;;;;;;;;21.78;21.12;98540.94;5053082;28;934;-76
2023/02/17 09:23:00;;;;;;;;;;;;;;;21.69;21.46;98532.19;5036734;28;987;-77
2023/02/17 09:25:26;;;;;;;;;;;;;;;22.46;20.49;98516.09;5003516;28;1910;-77
2023/02/17 09:27:52;;;;;;;;;;;;;;;22.49;20.12;98520.91;5053245;28;921;-77
2023/02/17 09:30:17;;;;;;;;;;;;;;;22.71;20.19;98519.19;5053153;28;1014;-77
2023/02/17 09:32:42;;;;;;;;;;;;;;;22.84;19.81;98520.09;5053021;28;999;-77
2023/02/17 09:35:14;;;;;;;;;;;;;;;22.60;20.08;98518.63;5032883;28;960;-77
2023/02/17 09:37:40;;;;;;;;;;;;;;;22.51;20.04;98518.44;5016574;28;1000;-78
2023/02/17 09:40:06;;;;;;;;;;;;;;;22.62;19.89;98514.09;5033357;28;963;-78
2023/02/17 09:42:31;;;;;;;;;;;;;;;22.51;20.03;98529.78;5033053;28;984;-77
2023/02/17 09:44:58;;;;;;;;;;;;;;;22.57;20.00;98511.00;4993610;28;1906;-77
2023/02/17 09:47:37;;;;;;;;;;;;;;;22.68;19.77;98514.38;5024113;28;988;-77
2023/02/17 09:50:05;;;;;;;;;;;;;;;22.43;20.12;98514.13;5016439;28;993;-77
2023/02/17 09:52:56;;;;;;;;;;;;;;;22.39;20.22;98504.94;5033153;28;944;-77
2023/02/17 09:55:26;;;;;;;;;;;;;;;22.29;20.43;98518.09;5031047;28;979;-77
2023/02/17 09:58:10;;;;;;;;;;;;;;;22.12;20.48;98473.91;5016647;28;913;-77
2023/02/17 10:00:39;;;;;;;;;;;;;;;22.19;20.34;98508.59;5032681;28;1012;-77
2023/02/17 10:03:07;;;;;;;;;;;;;;;22.12;20.38;98514.38;5016347;28;1022;-77
2023/02/17 10:05:37;;;;;;;;;;;;;;;21.91;20.79;98509.91;5032536;28;1922;-77
2023/02/17 10:08:15;;;;;;;;;;;;;;;21.95;20.93;98512.69;5016342;28;1110;-77
2023/02/17 10:10:46;;;;;;;;;;;;;;;21.88;20.64;98504.34;5016059;28;957;-77
2023/02/17 10:13:11;;;;;;;;;;;;;;;22.31;20.39;98510.75;5033329;28;919;-77
2023/02/17 10:15:40;;;;;;;;;;;;;;;22.33;20.26;98508.28;5035012;28;2047;-77
2023/02/17 10:18:12;;;;;;;;;;;;;;;22.17;20.39;98505.38;5088554;28;1025;-77
2023/02/17 10:20:41;;;;;;;;;;;;;;;22.00;20.69;98498.81;5059031;28;925;-76
2023/02/17 10:23:09;;;;;;;;;;;;;;;21.92;20.91;98502.25;5059024;28;935;-77
2023/02/17 10:25:43;;;;;;;;;;;;;;;22.05;20.77;98491.84;5090834;28;1902;-77
2023/02/17 10:28:09;;;;;;;;;;;;;;;22.45;20.17;98491.84;5091600;28;908;-77
2023/02/17 10:30:43;;;;;;;;;;;;;;;22.29;20.30;98492.59;5091196;28;901;-77
2023/02/17 10:33:13;;;;;;;;;;;;;;;22.23;20.57;98483.81;5058824;28;912;-77
2023/02/17 10:35:57;;;;;;;;;;;;;;;22.01;20.60;98480.56;5090860;28;894;-76
2023/02/17 10:38:23;;;;;;;;;;;;;;;21.96;20.51;98483.91;5058682;28;1003;-76
2023/02/17 10:40:49;;;;;;;;;;;;;;;22.29;20.18;98473.53;5058690;28;948;-76
2023/02/17 10:43:15;;;;;;;;;;;;;;;22.20;20.46;98470.50;5091271;28;1081;-76
2023/02/17 10:45:40;;;;;;;;;;;;;;;22.06;20.67;98465.09;5056978;28;1918;-76
2023/02/17 10:48:45;;;;;;;;;;;;;;;22.03;20.62;98480.16;5089764;28;989;-76
2023/02/17 10:51:13;;;;;;;;;;;;;;;21.92;20.79;98482.41;5075922;28;1038;-77
2023/02/17 10:53:39;;;;;;;;;;;;;;;22.12;20.67;98468.25;5075797;28;912;-77
2023/02/17 10:56:13;;;;;;;;;;;;;;;22.31;20.60;98473.88;5076029;28;1022;-77
2023/02/17 10:58:44;;;;;;;;;;;;;;;22.12;20.57;98471.06;5059110;28;1057;-76
2023/02/17 11:01:10;;;;;;;;;;;;;;;22.04;20.55;98467.56;5076100;28;948;-77
2023/02/17 11:03:37;;;;;;;;;;;;;;;22.13;20.40;98469.84;5076083;28;1118;-77
2023/02/17 11:06:21;;;;;;;;;;;;;;;22.39;20.21;98470.91;5058509;28;1913;-69
2023/02/17 11:08:50;;;;;;;;;;;;;;;22.88;19.67;98475.44;5075396;28;1076;-69
2023/02/17 11:11:18;;;;;;;;;;;;;;;22.58;20.45;98472.88;5088339;28;1587;-69
2023/02/17 11:13:45;;;;;;;;;;;;;;;22.84;19.86;98469.00;5078769;28;1009;-69
2023/02/17 11:16:26;;;;;;;;;;;;;;;22.54;20.25;98466.50;5078633;28;1043;-69
2023/02/17 11:18:51;;;;;;;;;;;;;;;22.70;20.23;98465.75;5095353;28;977;-69
2023/02/17 11:21:17;;;;;;;;;;;;;;;22.38;20.60;98474.97;5092051;28;1409;-79
2023/02/17 11:23:58;;;;;;;;;;;;;;;22.30;20.69;98458.13;5077898;28;1113;-80
2023/02/17 11:26:24;;;;;;;;;;;;;;;22.18;21.00;98461.63;5077038;28;1968;-80
2023/02/17 11:28:50;;;;;;;;;;;;;;;22.26;21.05;98451.72;5060467;28;898;-79
2023/02/17 11:31:25;;;;;;;;;;;;;;;22.31;20.89;98453.25;5077183;28;818;-79
2023/02/17 11:33:51;;;;;;;;;;;;;;;22.29;20.63;98445.19;5077283;28;888;-79
2023/02/17 11:36:24;;;;;;;;;;;;;;;22.16;20.83;98446.28;5078145;28;762;-79
2023/02/17 11:38:49;;;;;;;;;;;;;;;22.29;20.51;98450.84;5076624;28;864;-69
2023/02/17 11:41:16;;;;;;;;;;;;;;;22.20;20.88;98459.16;5077301;28;1111;-78
2023/02/17 11:43:59;;;;;;;;;;;;;;;22.14;20.92;98460.13;5076552;28;921;-78
2023/02/17 11:46:28;;;;;;;;;;;;;;;22.30;20.66;98452.44;5075969;28;1913;-68
2023/02/17 11:48:59;;;;;;;;;;;;;;;22.42;20.81;98459.47;5077270;28;1017;-69
2023/02/17 11:51:44;;;;;;;;;;;;;;;22.26;20.82;98442.41;5075700;28;2078;-69
2023/02/17 11:54:28;;;;;;;;;;;;;;;22.42;20.53;98438.81;5077010;28;1252;-69
2023/02/17 11:57:03;;;;;;;;;;;;;;;22.52;20.22;98437.78;5076959;28;902;-69
2023/02/17 11:59:28;;;;;;;;;;;;;;;22.56;20.42;98441.34;5077068;28;922;-69
2023/02/17 12:01:53;;;;;;;;;;;;;;;22.48;20.65;98437.06;5077223;28;1048;-71
2023/02/17 12:04:37;;;;;;;;;;;;;;;22.39;20.81;98436.88;5076934;28;940;-75
2023/02/17 12:07:20;;;;;;;;;;;;;;;22.34;20.54;98430.50;5075993;28;1914;-76
2023/02/17 12:09:55;;;;;;;;;;;;;;;22.35;20.54;98443.44;5075515;28;935;-70
2023/02/17 12:12:21;;;;;;;;;;;;;;;22.36;20.62;98430.84;5075766;28;899;-70
2023/02/17 12:14:49;;;;;;;;;;;;;;;22.63;20.24;98432.66;5076701;28;1027;-71
2023/02/17 12:17:33;;;;;;;;;;;;;;;22.68;19.92;98432.13;5076837;28;906;-79
2023/02/17 12:19:59;;;;;;;;;;;;;;;22.18;20.63;98430.47;5077815;28;877;-79
2023/02/17 12:22:40;;;;;;;;;;;;;;;22.06;20.99;98414.88;5060234;28;1137;-79
2023/02/17 12:25:26;;;;;;;;;;;;;;;22.00;20.76;98415.84;5077682;28;1901;-79
2023/02/17 12:28:14;;;;;;;;;;;;;;;21.83;20.98;98415.00;5109565;28;1289;-80
2023/02/17 12:30:44;;;;;;;;;;;;;;;22.01;20.72;98417.44;5055186;28;1081;-79
2023/02/17 12:33:28;;;;;;;;;;;;;;;22.28;20.41;98422.97;5055281;28;972;-79
2023/02/17 12:35:55;;;;;;;;;;;;;;;22.13;20.79;98418.84;5038343;28;1100;-79
2023/02/17 12:38:25;;;;;;;;;;;;;;;21.93;21.06;98428.13;5038437;28;1166;-79
2023/02/17 12:41:07;;;;;;;;;;;;;;;21.68;21.43;98428.63;5037784;28;1000;-79
2023/02/17 12:43:43;;;;;;;;;;;;;;;21.72;21.08;98435.03;5038528;28;1039;-79
2023/02/17 12:46:16;;;;;;;;;;;;;;;21.92;20.71;98434.25;5038248;28;1897;-79
2023/02/17 12:48:47;;;;;;;;;;;;;;;22.24;20.65;98442.88;4998784;28;1210;-79
2023/02/17 12:51:15;;;;;;;;;;;;;;;22.21;20.83;98446.56;5015263;28;880;-79
2023/02/17 12:53:45;;;;;;;;;;;;;;;21.83;20.88;98429.16;5015282;28;924;-79
2023/02/17 12:56:30;;;;;;;;;;;;;;;21.93;20.87;98438.66;5015028;28;1005;-79
2023/02/17 12:58:58;;;;;;;;;;;;;;;21.68;21.31;98439.97;4982773;28;1214;-79
2023/02/17 13:01:28;;;;;;;;;;;;;;;21.98;20.70;98432.50;5014812;28;1065;-79
2023/02/17 13:03:53;;;;;;;;;;;;;;;22.15;20.51;98433.38;5014883;28;798;-79
2023/02/17 13:06:31;;;;;;;;;;;;;;;22.29;20.30;98438.72;5015093;28;1910;-79
2023/02/17 13:08:57;;;;;;;;;;;;;;;21.91;20.83;98435.44;5054378;28;933;-79
2023/02/17 13:11:27;;;;;;;;;;;;;;;21.70;21.21;98437.50;5005320;28;1140;-79
2023/02/17 13:13:52;;;;;;;;;;;;;;;21.62;21.07;98453.03;5021350;28;1684;-79